createdAt,value
2022-11-05T00:00:39.628Z,98418.28
2022-11-05T00:03:30.371Z,98426.54
2022-11-05T00:06:16.931Z,98431.98
2022-11-05T00:09:04.157Z,98432.73
2022-11-05T00:12:01.616Z,98434.02
2022-11-05T00:15:05.324Z,98432.65
2022-11-05T00:17:33.906Z,98430.77
2022-11-05T00:20:02.085Z,98435.23
2022-11-05T00:22:48.791Z,98439.37
2022-11-05T00:25:17.973Z,98441.52
2022-11-05T00:27:51.077Z,98446.77
2022-11-05T00:30:22.321Z,98445.89
2022-11-05T00:32:52.133Z,98439.20
2022-11-05T00:35:22.460Z,98440.38
2022-11-05T00:37:53.489Z,98442.30
2022-11-05T00:40:21.571Z,98440.20
2022-11-05T00:43:08.607Z,98442.32
2022-11-05T00:45:38.090Z,98441.98
2022-11-05T00:48:26.847Z,98445.11
2022-11-05T00:50:54.997Z,98448.02
2022-11-05T00:53:23.090Z,98451.68
2022-11-05T00:55:51.264Z,98448.73
2022-11-05T00:58:21.796Z,98445.14
2022-11-05T01:00:58.269Z,98443.30
2022-11-05T01:03:32.477Z,98439.37
2022-11-05T01:06:08.333Z,98437.98
2022-11-05T01:08:36.916Z,98433.97
2022-11-05T01:11:49.225Z,98427.55
2022-11-05T01:14:17.396Z,98430.20
2022-11-05T01:16:45.745Z,98431.32
2022-11-05T01:19:14.052Z,98440.73
2022-11-05T01:21:42.079Z,98445.38
2022-11-05T01:24:11.036Z,98445.08
2022-11-05T01:26:39.046Z,98450.38
2022-11-05T01:29:07.135Z,98452.81
2022-11-05T01:31:35.431Z,98457.87
2022-11-05T01:34:03.503Z,98461.72
2022-11-05T01:36:32.087Z,98462.75
2022-11-05T01:39:00.173Z,98465.04
2022-11-05T01:41:29.662Z,98465.73
2022-11-05T01:43:59.947Z,98462.87
2022-11-05T01:46:33.997Z,98455.05
2022-11-05T01:49:33.513Z,98451.23
2022-11-05T01:52:04.549Z,98450.95
2022-11-05T01:54:33.378Z,98449.80
2022-11-05T01:57:06.526Z,98452.84
2022-11-05T01:59:43.312Z,98454.10
2022-11-05T02:02:11.772Z,98457.14
2022-11-05T02:04:47.635Z,98454.19
2022-11-05T02:07:17.524Z,98450.43
2022-11-05T02:09:54.224Z,98448.64
2022-11-05T02:12:23.320Z,98455.50
2022-11-05T02:14:51.390Z,98453.02
2022-11-05T02:17:34.823Z,98450.29
2022-11-05T02:20:13.235Z,98455.62
2022-11-05T02:23:02.404Z,98458.84
2022-11-05T02:25:54.742Z,98468.30
2022-11-05T02:29:04.085Z,98475.48
2022-11-05T02:31:50.175Z,98477.31
2022-11-05T02:34:47.430Z,98485.56
2022-11-05T02:37:36.391Z,98488.00
2022-11-05T02:40:34.363Z,98489.73
2022-11-05T02:43:24.455Z,98494.41
2022-11-05T02:46:01.536Z,98493.13
2022-11-05T02:48:36.980Z,98498.95
2022-11-05T02:51:47.447Z,98498.30
2022-11-05T02:54:44.699Z,98499.42
2022-11-05T02:57:12.774Z,98495.11
2022-11-05T02:59:40.948Z,98493.95
2022-11-05T03:02:09.412Z,98497.96
2022-11-05T03:04:37.803Z,98501.15
2022-11-05T03:07:24.203Z,98504.95
2022-11-05T03:10:17.875Z,98505.34
2022-11-05T03:13:23.322Z,98514.27
2022-11-05T03:16:02.864Z,98517.70
2022-11-05T03:18:42.548Z,98526.64
2022-11-05T03:21:51.104Z,98533.94
2022-11-05T03:24:31.897Z,98539.06
2022-11-05T03:27:09.900Z,98547.63
2022-11-05T03:29:47.500Z,98552.44
2022-11-05T03:32:18.332Z,98557.16
2022-11-05T03:34:54.083Z,98560.82
2022-11-05T03:37:24.509Z,98564.29
2022-11-05T03:39:56.682Z,98562.73
2022-11-05T03:42:30.278Z,98565.16
2022-11-05T03:45:02.344Z,98564.25
2022-11-05T03:47:36.047Z,98565.42
2022-11-05T03:50:14.640Z,98568.30
2022-11-05T03:52:54.077Z,98568.64
2022-11-05T03:55:33.027Z,98568.39
2022-11-05T03:58:04.375Z,98572.73
2022-11-05T04:00:33.249Z,98575.35
2022-11-05T04:03:01.380Z,98581.13
2022-11-05T04:05:29.717Z,98584.65
2022-11-05T04:08:16.424Z,98589.33
2022-11-05T04:11:03.136Z,98588.00
2022-11-05T04:13:32.229Z,98588.31
2022-11-05T04:16:18.835Z,98591.52
2022-11-05T04:18:47.137Z,98603.79
2022-11-05T04:21:33.715Z,98606.83
2022-11-05T04:24:10.907Z,98614.96
2022-11-05T04:26:41.436Z,98616.05
2022-11-05T04:29:28.960Z,98616.03
2022-11-05T04:31:57.339Z,98615.70
2022-11-05T04:34:25.509Z,98613.67
2022-11-05T04:36:53.990Z,98617.45
2022-11-05T04:39:22.174Z,98623.46
2022-11-05T04:41:50.546Z,98632.70
2022-11-05T04:44:18.716Z,98636.27
2022-11-05T04:46:46.788Z,98642.21
2022-11-05T04:49:14.860Z,98651.19
2022-11-05T04:51:43.239Z,98649.15
2022-11-05T04:54:11.515Z,98655.29
2022-11-05T04:56:39.584Z,98658.48
2022-11-05T04:59:07.759Z,98661.89
2022-11-05T05:01:36.069Z,98666.27
2022-11-05T05:04:04.718Z,98668.19
2022-11-05T05:06:32.894Z,98673.51
2022-11-05T05:09:00.965Z,98676.12
2022-11-05T05:11:29.045Z,98674.99
2022-11-05T05:13:58.042Z,98676.66
2022-11-05T05:16:27.842Z,98678.70
2022-11-05T05:18:56.120Z,98676.35
2022-11-05T05:21:39.654Z,98674.47
2022-11-05T05:24:13.459Z,98676.15
2022-11-05T05:26:43.987Z,98675.84
2022-11-05T05:29:13.082Z,98674.48
2022-11-05T05:31:41.460Z,98679.16
2022-11-05T05:34:14.137Z,98679.33
2022-11-05T05:36:42.518Z,98685.88
2022-11-05T05:39:13.763Z,98691.02
2022-11-05T05:41:41.837Z,98692.58
2022-11-05T05:44:09.911Z,98695.68
2022-11-05T05:46:37.978Z,98703.13
2022-11-05T05:49:11.189Z,98710.42
2022-11-05T05:51:40.470Z,98717.21
2022-11-05T05:54:08.848Z,98719.46
2022-11-05T05:56:36.920Z,98725.13
2022-11-05T05:59:06.458Z,98728.23
2022-11-05T06:01:34.658Z,98734.14
2022-11-05T06:04:03.592Z,98740.41
2022-11-05T06:06:31.764Z,98741.81
2022-11-05T06:09:00.143Z,98743.25
2022-11-05T06:11:28.422Z,98744.50
2022-11-05T06:13:56.491Z,98750.88
2022-11-05T06:16:24.672Z,98750.85
2022-11-05T06:18:52.979Z,98749.26
2022-11-05T06:21:21.319Z,98749.61
2022-11-05T06:23:50.005Z,98751.02
2022-11-05T06:26:19.215Z,98756.92
2022-11-05T06:28:47.551Z,98767.56
2022-11-05T06:31:15.860Z,98771.38
2022-11-05T06:33:43.932Z,98773.75
2022-11-05T06:36:15.603Z,98778.27
2022-11-05T06:38:44.270Z,98778.63
2022-11-05T06:41:12.546Z,98780.94
2022-11-05T06:43:40.722Z,98781.27
2022-11-05T06:46:10.837Z,98785.84
2022-11-05T06:48:39.962Z,98786.50
2022-11-05T06:51:08.619Z,98785.75
2022-11-05T06:53:37.333Z,98785.74
2022-11-05T06:56:07.320Z,98791.52
2022-11-05T06:58:35.597Z,98794.09
2022-11-05T07:01:05.765Z,98799.16
2022-11-05T07:03:34.505Z,98805.98
2022-11-05T07:06:04.735Z,98808.93
2022-11-05T07:08:35.154Z,98809.56
2022-11-05T07:11:04.293Z,98812.35
2022-11-05T07:13:33.860Z,98820.91
2022-11-05T07:16:01.929Z,98823.17
2022-11-05T07:18:29.998Z,98830.67
2022-11-05T07:21:00.414Z,98839.22
2022-11-05T07:23:28.600Z,98843.06
2022-11-05T07:25:56.670Z,98845.35
2022-11-05T07:28:24.947Z,98846.04
2022-11-05T07:30:54.248Z,98851.46
2022-11-05T07:33:22.321Z,98857.44
2022-11-05T07:35:50.492Z,98858.71
2022-11-05T07:38:19.586Z,98863.80
2022-11-05T07:40:47.657Z,98867.44
2022-11-05T07:43:16.255Z,98866.77
2022-11-05T07:45:47.161Z,98869.04
2022-11-05T07:48:15.251Z,98872.16
2022-11-05T07:50:43.345Z,98873.38
2022-11-05T07:53:14.721Z,98877.88
2022-11-05T07:55:46.033Z,98878.52
2022-11-05T07:58:15.327Z,98881.48
2022-11-05T08:00:44.437Z,98880.14
2022-11-05T08:03:15.032Z,98883.41
2022-11-05T08:05:46.497Z,98878.14
2022-11-05T08:08:17.749Z,98877.36
2022-11-05T08:10:46.533Z,98880.10
2022-11-05T08:13:15.618Z,98881.04
2022-11-05T08:15:44.618Z,98874.28
2022-11-05T08:18:15.377Z,98875.55
2022-11-05T08:20:45.281Z,98869.28
2022-11-05T08:23:13.565Z,98870.32
2022-11-05T08:25:43.768Z,98871.27
2022-11-05T08:28:13.788Z,98868.32
2022-11-05T08:30:41.966Z,98870.57
2022-11-05T08:33:12.733Z,98868.46
2022-11-05T08:35:41.682Z,98874.05
2022-11-05T08:38:16.512Z,98877.03
2022-11-05T08:40:46.632Z,98879.42
2022-11-05T08:43:15.053Z,98881.88
2022-11-05T08:45:43.388Z,98880.03
2022-11-05T08:48:15.211Z,98879.55
2022-11-05T08:50:45.881Z,98880.48
2022-11-05T08:53:14.428Z,98879.81
2022-11-05T08:55:44.202Z,98878.53
2022-11-05T08:58:15.535Z,98884.11
2022-11-05T09:00:46.720Z,98886.92
2022-11-05T09:03:15.504Z,98888.16
2022-11-05T09:05:44.039Z,98892.88
2022-11-05T09:08:18.050Z,98899.84
2022-11-05T09:10:47.767Z,98905.89
2022-11-05T09:13:19.892Z,98910.08
2022-11-05T09:15:50.080Z,98912.37
2022-11-05T09:18:19.853Z,98913.80
2022-11-05T09:20:48.132Z,98918.32
2022-11-05T09:23:16.408Z,98921.15
2022-11-05T09:25:45.258Z,98926.74
2022-11-05T09:28:19.088Z,98925.71
2022-11-05T09:30:52.706Z,98930.83
2022-11-05T09:33:24.156Z,98929.16
2022-11-05T09:35:53.785Z,98930.76
2022-11-05T09:38:22.242Z,98933.38
2022-11-05T09:41:12.534Z,98939.96
2022-11-05T09:44:16.038Z,98947.79
2022-11-05T09:46:49.639Z,98955.34
2022-11-05T09:49:35.439Z,98958.86
2022-11-05T09:52:03.806Z,98963.09
2022-11-05T09:54:32.386Z,98965.48
2022-11-05T09:57:02.407Z,98966.02
2022-11-05T09:59:42.045Z,98966.89
2022-11-05T10:02:17.988Z,98967.61
2022-11-05T10:04:50.327Z,98972.00
2022-11-05T10:07:23.055Z,98976.02
2022-11-05T10:10:03.619Z,98982.61
2022-11-05T10:12:45.820Z,98984.14
2022-11-05T10:15:18.600Z,98985.20
2022-11-05T10:17:57.017Z,98987.80
2022-11-05T10:20:35.428Z,98984.85
2022-11-05T10:23:12.887Z,98983.81
2022-11-05T10:25:47.751Z,98983.77
2022-11-05T10:28:22.069Z,98987.23
2022-11-05T10:30:55.977Z,98989.02
2022-11-05T10:33:42.992Z,98990.09
2022-11-05T10:36:35.027Z,98990.60
2022-11-05T10:39:10.162Z,98996.27
2022-11-05T10:41:44.175Z,98994.36
2022-11-05T10:44:27.402Z,98994.17
2022-11-05T10:47:23.530Z,98991.04
2022-11-05T10:49:58.981Z,98994.14
2022-11-05T10:52:30.936Z,98989.02
2022-11-05T10:55:02.817Z,98986.52
2022-11-05T10:57:33.530Z,98987.70
2022-11-05T11:00:22.043Z,98991.35
2022-11-05T11:03:00.522Z,98989.44
2022-11-05T11:05:46.999Z,98996.14
2022-11-05T11:08:15.070Z,98996.13
2022-11-05T11:11:05.161Z,98999.95
2022-11-05T11:14:04.769Z,98999.64
2022-11-05T11:16:40.091Z,98999.64
2022-11-05T11:19:26.614Z,99004.48
2022-11-05T11:22:13.833Z,99006.55
2022-11-05T11:24:45.386Z,99005.67
2022-11-05T11:27:21.139Z,99002.92
2022-11-05T11:29:58.429Z,99002.77
2022-11-05T11:32:33.729Z,99001.23
2022-11-05T11:35:02.974Z,99003.81
2022-11-05T11:37:42.130Z,98998.75
2022-11-05T11:40:20.818Z,98998.41
2022-11-05T11:42:55.853Z,98996.15
2022-11-05T11:45:47.276Z,98997.70
2022-11-05T11:48:46.030Z,98996.06
2022-11-05T11:51:20.277Z,98995.54
2022-11-05T11:53:49.781Z,98995.35
2022-11-05T11:56:21.943Z,99001.13
2022-11-05T11:58:57.188Z,99004.10
2022-11-05T12:01:50.146Z,99006.36
2022-11-05T12:04:36.648Z,99013.10
2022-11-05T12:07:22.946Z,99017.29
2022-11-05T12:10:13.347Z,99015.56
2022-11-05T12:13:15.513Z,99021.15
2022-11-05T12:16:02.424Z,99027.39
2022-11-05T12:19:09.567Z,99027.01
2022-11-05T12:22:09.973Z,99025.78
2022-11-05T12:25:06.376Z,99030.36
2022-11-05T12:28:03.427Z,99026.55
2022-11-05T12:31:03.038Z,99027.88
2022-11-05T12:33:52.817Z,99025.24
2022-11-05T12:36:35.941Z,99025.41
2022-11-05T12:39:14.867Z,99029.08
2022-11-05T12:42:02.877Z,99031.00
2022-11-05T12:44:34.461Z,99035.84
2022-11-05T12:47:02.940Z,99040.48
2022-11-05T12:50:00.431Z,99043.15
2022-11-05T12:52:43.730Z,99046.02
2022-11-05T12:55:18.470Z,99049.16
2022-11-05T12:57:49.389Z,99052.92
2022-11-05T13:00:21.358Z,99057.41
2022-11-05T13:03:10.980Z,99059.17
2022-11-05T13:05:43.715Z,99061.65
2022-11-05T13:08:53.602Z,99066.23
2022-11-05T13:11:28.577Z,99063.44
2022-11-05T13:14:11.726Z,99065.15
2022-11-05T13:16:45.838Z,99065.69
2022-11-05T13:19:28.860Z,99067.26
2022-11-05T13:22:12.393Z,99066.92
2022-11-05T13:24:56.442Z,99072.65
2022-11-05T13:27:49.194Z,99076.63
2022-11-05T13:30:21.840Z,99081.90
2022-11-05T13:33:04.587Z,99080.05
2022-11-05T13:35:42.146Z,99081.64
2022-11-05T13:38:39.679Z,99083.27
2022-11-05T13:41:29.827Z,99085.37
2022-11-05T13:44:27.390Z,99082.60
2022-11-05T13:47:27.514Z,99081.23
2022-11-05T13:50:07.361Z,99083.52
2022-11-05T13:52:59.395Z,99083.00
2022-11-05T13:55:42.722Z,99089.98
2022-11-05T13:58:48.582Z,99096.27
2022-11-05T14:01:32.129Z,99101.16
2022-11-05T14:04:00.801Z,99104.84
2022-11-05T14:06:32.147Z,99111.45
2022-11-05T14:09:10.002Z,99110.90
2022-11-05T14:11:43.140Z,99111.91
2022-11-05T14:14:21.860Z,99111.58
2022-11-05T14:17:09.591Z,99113.30
2022-11-05T14:20:02.925Z,99116.95
2022-11-05T14:22:31.337Z,99121.84
2022-11-05T14:25:01.456Z,99126.18
2022-11-05T14:27:52.468Z,99131.76
2022-11-05T14:30:46.547Z,99130.20
2022-11-05T14:33:32.535Z,99135.09
2022-11-05T14:36:23.549Z,99133.67
2022-11-05T14:38:56.861Z,99136.99
2022-11-05T14:41:28.503Z,99141.53
2022-11-05T14:44:02.402Z,99146.92
2022-11-05T14:46:47.167Z,99147.96
2022-11-05T14:49:25.987Z,99150.39
2022-11-05T14:52:00.993Z,99152.45
2022-11-05T14:54:40.256Z,99152.10
2022-11-05T14:57:13.630Z,99155.44
2022-11-05T15:00:02.469Z,99161.05
2022-11-05T15:02:37.877Z,99165.39
2022-11-05T15:05:31.032Z,99167.80
2022-11-05T15:08:00.430Z,99167.63
2022-11-05T15:10:37.598Z,99171.95
2022-11-05T15:13:06.694Z,99171.08
2022-11-05T15:15:44.334Z,99176.13
2022-11-05T15:18:29.869Z,99175.75
2022-11-05T15:21:02.141Z,99177.14
2022-11-05T15:23:38.818Z,99181.86
2022-11-05T15:26:15.793Z,99187.96
2022-11-05T15:28:47.885Z,99189.00
2022-11-05T15:31:16.237Z,99189.88
2022-11-05T15:33:49.325Z,99187.06
2022-11-05T15:36:25.833Z,99194.39
2022-11-05T15:39:22.975Z,99192.67
2022-11-05T15:41:43.340Z,99198.75
2022-11-05T15:44:48.273Z,99198.04
2022-11-05T15:47:21.055Z,99202.23
2022-11-05T15:49:56.605Z,99206.92
2022-11-05T15:52:42.594Z,99211.65
2022-11-05T15:55:19.007Z,99211.99
2022-11-05T15:57:51.517Z,99213.55
2022-11-05T16:00:23.891Z,99212.70
2022-11-05T16:03:01.095Z,99216.20
2022-11-05T16:05:42.175Z,99220.22
2022-11-05T16:08:28.263Z,99217.79
2022-11-05T16:10:59.743Z,99223.52
2022-11-05T16:13:34.748Z,99225.61
2022-11-05T16:16:06.916Z,99226.47
2022-11-05T16:18:40.004Z,99228.77
2022-11-05T16:21:16.502Z,99234.70
2022-11-05T16:23:46.871Z,99237.10
2022-11-05T16:29:32.176Z,99243.38
2022-11-05T16:32:04.674Z,99246.02
2022-11-05T16:34:42.980Z,99246.87
2022-11-05T16:37:16.582Z,99248.05
2022-11-05T16:39:45.675Z,99249.30
2022-11-05T16:42:24.809Z,99251.05
2022-11-05T16:44:55.350Z,99256.27
2022-11-05T16:47:26.278Z,99249.67
2022-11-05T16:49:54.917Z,99253.14
2022-11-05T16:52:23.735Z,99251.76
2022-11-05T16:54:52.949Z,99255.80
2022-11-05T16:57:30.744Z,99259.98
2022-11-05T17:00:00.973Z,99268.88
2022-11-05T17:02:29.582Z,99268.69
2022-11-05T17:04:58.341Z,99271.30
2022-11-05T17:07:26.614Z,99274.60
2022-11-05T17:09:56.120Z,99278.95
2022-11-05T17:12:24.394Z,99277.21
2022-11-05T17:14:52.466Z,99280.16
2022-11-05T17:17:20.488Z,99286.77
2022-11-05T17:19:48.714Z,99285.94
2022-11-05T17:22:16.783Z,99292.71
2022-11-05T17:24:44.854Z,99295.70
2022-11-05T17:27:13.029Z,99294.85
2022-11-05T17:29:41.098Z,99299.19
2022-11-05T17:32:09.172Z,99302.00
2022-11-05T17:34:37.346Z,99306.88
2022-11-05T17:37:05.620Z,99310.19
2022-11-05T17:39:33.692Z,99312.81
2022-11-05T17:42:01.764Z,99314.38
2022-11-05T17:44:29.800Z,99313.31
2022-11-05T17:46:57.905Z,99314.88
2022-11-05T17:49:26.387Z,99314.36
2022-11-05T17:51:54.562Z,99317.87
2022-11-05T17:54:22.633Z,99315.95
2022-11-05T17:56:50.703Z,99313.52
2022-11-05T17:59:18.774Z,99318.90
2022-11-05T18:01:47.051Z,99321.52
2022-11-05T18:04:15.634Z,99322.73
2022-11-05T18:06:43.807Z,99321.70
2022-11-05T18:09:14.342Z,99320.84
2022-11-05T18:11:42.714Z,99324.67
2022-11-05T18:14:11.196Z,99325.89
2022-11-05T18:16:39.268Z,99329.03
2022-11-05T18:19:07.440Z,99333.91
2022-11-05T18:21:35.614Z,99332.36
2022-11-05T18:24:04.945Z,99334.10
2022-11-05T18:26:33.585Z,99334.09
2022-11-05T18:29:03.108Z,99337.91
2022-11-05T18:31:31.280Z,99343.84
2022-11-05T18:34:00.752Z,99343.67
2022-11-05T18:36:31.533Z,99349.08
2022-11-05T18:39:01.844Z,99356.20
2022-11-05T18:41:30.724Z,99358.10
2022-11-05T18:44:03.309Z,99357.40
2022-11-05T18:49:21.262Z,99360.39
2022-11-05T18:51:49.949Z,99366.29
2022-11-05T18:54:18.028Z,99366.11
2022-11-05T18:56:47.330Z,99371.34
2022-11-05T19:02:09.229Z,99371.54
2022-11-05T19:04:37.917Z,99375.02
2022-11-05T19:07:07.529Z,99375.70
2022-11-05T19:09:37.491Z,99378.48
2022-11-05T19:12:07.233Z,99378.83
2022-11-05T19:14:36.992Z,99377.44
2022-11-05T19:17:05.683Z,99382.66
2022-11-05T19:19:33.857Z,99386.33
2022-11-05T19:22:02.236Z,99387.02
2022-11-05T19:24:30.615Z,99389.98
2022-11-05T19:27:00.870Z,99395.55
2022-11-05T19:29:29.316Z,99398.86
2022-11-05T19:31:57.594Z,99401.48
2022-11-05T19:34:25.880Z,99403.39
2022-11-05T19:36:55.425Z,99406.70
2022-11-05T19:39:25.146Z,99408.27
2022-11-05T19:41:56.528Z,99413.33
2022-11-05T19:44:27.575Z,99411.41
2022-11-05T19:46:57.869Z,99410.38
2022-11-05T19:49:28.225Z,99418.90
2022-11-05T19:51:56.611Z,99422.03
2022-11-05T19:54:24.726Z,99427.09
2022-11-05T19:56:53.155Z,99426.21
2022-11-05T19:59:21.430Z,99432.83
2022-11-05T20:01:49.760Z,99434.58
2022-11-05T20:04:18.292Z,99439.26
2022-11-05T20:06:46.462Z,99443.96
2022-11-05T20:09:23.291Z,99445.52
2022-11-05T20:11:54.676Z,99446.75
2022-11-05T20:14:24.503Z,99455.63
2022-11-05T20:16:54.114Z,99458.94
2022-11-05T20:19:23.350Z,99457.72
2022-11-05T20:21:52.095Z,99465.90
2022-11-05T20:24:25.172Z,99470.42
2022-11-05T20:26:55.396Z,99475.30
2022-11-05T20:29:29.026Z,99475.31
2022-11-05T20:31:58.105Z,99476.16
2022-11-05T20:34:26.172Z,99478.42
2022-11-05T20:36:54.245Z,99481.21
2022-11-05T20:39:23.239Z,99486.27
2022-11-05T20:41:53.050Z,99487.14
2022-11-05T20:44:21.224Z,99487.49
2022-11-05T20:46:49.403Z,99490.63
2022-11-05T20:49:22.536Z,99490.11
2022-11-05T20:51:54.508Z,99488.88
2022-11-05T20:54:23.953Z,99493.58
2022-11-05T20:56:52.437Z,99499.67
2022-11-05T20:59:20.920Z,99503.51
2022-11-05T21:01:50.613Z,99504.22
2022-11-05T21:04:19.002Z,99506.48
2022-11-05T21:06:47.289Z,99507.52
2022-11-05T21:09:15.658Z,99510.12
2022-11-05T21:12:02.672Z,99511.00
2022-11-05T21:14:30.949Z,99515.52
2022-11-05T21:16:59.328Z,99517.08
2022-11-05T21:19:29.856Z,99515.18
2022-11-05T21:21:57.969Z,99513.08
2022-11-05T21:24:26.408Z,99514.11
2022-11-05T21:26:54.689Z,99518.66
2022-11-05T21:29:22.961Z,99519.69
2022-11-05T21:31:51.237Z,99522.64
2022-11-05T21:34:19.828Z,99526.13
2022-11-05T21:36:47.993Z,99527.52
2022-11-05T21:39:16.680Z,99527.86
2022-11-05T21:41:45.064Z,99530.83
2022-11-05T21:44:13.437Z,99535.19
2022-11-05T21:46:41.918Z,99535.35
2022-11-05T21:49:10.604Z,99535.88
2022-11-05T21:51:57.107Z,99534.66
2022-11-05T21:54:43.981Z,99534.30
2022-11-05T21:57:36.003Z,99535.88
2022-11-05T22:00:06.013Z,99530.83
2022-11-05T22:02:34.782Z,99532.22
2022-11-05T22:05:04.013Z,99531.36
2022-11-05T22:07:34.994Z,99532.75
2022-11-05T22:10:14.674Z,99537.79
2022-11-05T22:12:46.192Z,99540.41
2022-11-05T22:15:15.083Z,99540.77
2022-11-05T22:17:46.865Z,99546.50
2022-11-05T22:20:16.964Z,99545.97
2022-11-05T22:22:47.276Z,99547.02
2022-11-05T22:25:16.663Z,99546.83
2022-11-05T22:27:44.961Z,99550.67
2022-11-05T22:30:14.363Z,99548.23
2022-11-05T22:32:44.694Z,99548.91
2022-11-05T22:35:12.760Z,99549.27
2022-11-05T22:37:41.036Z,99549.61
2022-11-05T22:40:09.828Z,99553.07
2022-11-05T22:42:38.112Z,99553.42
2022-11-05T22:45:07.176Z,99555.52
2022-11-05T22:47:35.470Z,99552.89
2022-11-05T22:50:05.257Z,99556.90
2022-11-05T22:52:33.644Z,99558.11
2022-11-05T22:55:03.992Z,99553.77
2022-11-05T22:57:32.448Z,99552.91
2022-11-05T23:00:00.742Z,99549.77
2022-11-05T23:02:28.946Z,99549.96
2022-11-05T23:04:57.409Z,99552.05
2022-11-05T23:07:43.899Z,99555.52
2022-11-05T23:10:30.813Z,99556.56
2022-11-05T23:12:58.884Z,99560.06
2022-11-05T23:15:45.799Z,99557.98
2022-11-05T23:18:32.813Z,99559.72
2022-11-05T23:21:23.055Z,99556.77
2022-11-05T23:24:06.960Z,99560.06
2022-11-05T23:26:52.643Z,99559.20
2022-11-05T23:29:23.879Z,99560.92
2022-11-05T23:32:11.199Z,99559.18
2022-11-05T23:34:40.089Z,99561.27
2022-11-05T23:37:27.312Z,99563.69
2022-11-05T23:39:55.691Z,99568.39
2022-11-05T23:42:43.114Z,99567.20
2022-11-05T23:45:30.436Z,99568.04
2022-11-05T23:48:17.080Z,99573.80
2022-11-05T23:50:50.032Z,99574.50
2022-11-05T23:53:19.226Z,99575.54
2022-11-05T23:55:48.115Z,99575.02
2022-11-05T23:58:17.724Z,99580.42
